createdAt,value
2022-12-09T00:01:37.481Z,65.60
2022-12-09T00:04:05.749Z,65.70
2022-12-09T00:06:34.369Z,65.60
2022-12-09T00:09:02.531Z,65.70
2022-12-09T00:11:30.748Z,65.70
2022-12-09T00:14:00.515Z,65.70
2022-12-09T00:16:28.339Z,65.70
2022-12-09T00:18:57.984Z,65.80
2022-12-09T00:21:28.145Z,65.80
2022-12-09T00:23:58.149Z,65.80
2022-12-09T00:26:28.053Z,65.80
2022-12-09T00:28:57.700Z,65.80
2022-12-09T00:31:28.541Z,65.80
2022-12-09T00:33:59.338Z,65.90
2022-12-09T00:36:28.558Z,65.90
2022-12-09T00:38:58.061Z,65.90
2022-12-09T00:41:26.276Z,65.90
2022-12-09T00:43:54.300Z,65.90
2022-12-09T00:46:22.156Z,65.90
2022-12-09T00:48:51.543Z,65.90
2022-12-09T00:51:26.755Z,65.90
2022-12-09T00:53:55.944Z,66.00
2022-12-09T00:56:25.398Z,66.00
2022-12-09T00:58:53.389Z,66.00
2022-12-09T01:01:21.327Z,66.00
2022-12-09T01:03:49.363Z,66.00
2022-12-09T01:06:21.045Z,66.00
2022-12-09T01:08:49.297Z,66.10
2022-12-09T01:11:19.255Z,66.10
2022-12-09T01:13:47.133Z,66.10
2022-12-09T01:16:17.355Z,66.10
2022-12-09T01:18:46.623Z,66.20
2022-12-09T01:21:14.980Z,66.10
2022-12-09T01:23:44.070Z,66.20
2022-12-09T01:26:12.040Z,66.20
2022-12-09T01:28:41.033Z,66.20
2022-12-09T01:31:10.151Z,66.20
2022-12-09T01:33:38.325Z,66.20
2022-12-09T01:36:08.576Z,66.30
2022-12-09T01:38:37.188Z,66.30
2022-12-09T01:41:08.378Z,66.30
2022-12-09T01:43:36.280Z,66.30
2022-12-09T01:46:04.349Z,66.30
2022-12-09T01:48:34.464Z,66.30
2022-12-09T01:51:05.229Z,66.30
2022-12-09T01:53:36.879Z,66.40
2022-12-09T01:56:12.008Z,66.40
2022-12-09T01:58:39.864Z,66.40
2022-12-09T02:01:07.882Z,66.40
2022-12-09T02:03:36.201Z,66.40
2022-12-09T02:06:04.526Z,66.40
2022-12-09T02:08:32.604Z,66.40
2022-12-09T02:11:08.479Z,66.50
2022-12-09T02:13:52.626Z,66.50
2022-12-09T02:16:24.060Z,66.50
2022-12-09T02:19:00.640Z,66.50
2022-12-09T02:21:36.160Z,66.50
2022-12-09T02:24:10.277Z,66.50
2022-12-09T02:26:42.567Z,66.60
2022-12-09T02:29:44.583Z,66.60
2022-12-09T02:32:41.241Z,66.60
2022-12-09T02:35:18.384Z,66.60
2022-12-09T02:37:52.543Z,66.60
2022-12-09T02:40:24.204Z,66.60
2022-12-09T02:42:52.559Z,66.70
2022-12-09T02:45:22.146Z,66.60
2022-12-09T02:47:54.923Z,66.70
2022-12-09T02:50:28.592Z,66.70
2022-12-09T02:53:00.237Z,66.70
2022-12-09T02:55:32.648Z,66.70
2022-12-09T02:58:02.446Z,66.70
2022-12-09T03:00:33.645Z,66.80
2022-12-09T03:03:04.718Z,66.80
2022-12-09T03:05:42.228Z,66.70
2022-12-09T03:08:16.885Z,66.80
2022-12-09T03:10:54.391Z,66.80
2022-12-09T03:13:37.752Z,66.80
2022-12-09T03:16:10.887Z,66.80
2022-12-09T03:18:42.385Z,66.80
2022-12-09T03:21:15.141Z,66.80
2022-12-09T03:23:46.118Z,66.90
2022-12-09T03:26:16.285Z,66.90
2022-12-09T03:28:50.163Z,66.90
2022-12-09T03:31:23.106Z,66.90
2022-12-09T03:33:57.787Z,66.90
2022-12-09T03:36:29.991Z,66.90
2022-12-09T03:38:58.960Z,67.20
2022-12-09T03:41:30.464Z,67.00
2022-12-09T03:44:05.310Z,67.00
2022-12-09T03:46:33.445Z,67.00
2022-12-09T03:49:01.787Z,67.00
2022-12-09T03:51:36.371Z,67.00
2022-12-09T03:54:07.578Z,67.00
2022-12-09T03:56:40.053Z,67.00
2022-12-09T03:59:12.467Z,67.00
2022-12-09T04:01:42.293Z,67.00
2022-12-09T04:04:10.994Z,67.00
2022-12-09T04:06:40.610Z,67.00
2022-12-09T04:09:09.192Z,67.00
2022-12-09T04:11:37.312Z,67.00
2022-12-09T04:14:06.328Z,67.00
2022-12-09T04:16:37.441Z,67.10
2022-12-09T04:19:05.602Z,67.10
2022-12-09T04:21:33.620Z,67.10
2022-12-09T04:24:03.092Z,67.10
2022-12-09T04:26:31.098Z,67.10
2022-12-09T04:29:00.121Z,67.10
2022-12-09T04:31:28.160Z,67.20
2022-12-09T04:33:56.144Z,67.10
2022-12-09T04:36:23.900Z,67.10
2022-12-09T04:38:51.763Z,67.20
2022-12-09T04:41:20.834Z,67.20
2022-12-09T04:43:48.872Z,67.20
2022-12-09T04:46:18.722Z,67.20
2022-12-09T04:48:47.048Z,67.20
2022-12-09T04:51:16.366Z,67.20
2022-12-09T04:53:44.499Z,67.20
2022-12-09T04:56:14.581Z,67.30
2022-12-09T04:58:44.935Z,67.20
2022-12-09T05:01:17.206Z,67.30
2022-12-09T05:03:49.548Z,67.30
2022-12-09T05:06:19.064Z,67.30
2022-12-09T05:08:47.176Z,67.30
2022-12-09T05:11:15.593Z,67.20
2022-12-09T05:13:45.412Z,67.20
2022-12-09T05:16:16.867Z,67.20
2022-12-09T05:18:46.171Z,67.20
2022-12-09T05:21:16.737Z,67.10
2022-12-09T05:23:45.249Z,67.00
2022-12-09T05:26:16.012Z,67.00
2022-12-09T05:28:45.683Z,67.00
2022-12-09T05:31:17.193Z,67.00
2022-12-09T05:33:45.853Z,66.90
2022-12-09T05:36:15.696Z,66.90
2022-12-09T05:38:44.434Z,66.80
2022-12-09T05:41:13.448Z,66.80
2022-12-09T05:43:41.742Z,66.70
2022-12-09T05:46:11.615Z,66.70
2022-12-09T05:48:39.828Z,66.60
2022-12-09T05:51:11.153Z,66.60
2022-12-09T05:53:39.098Z,66.50
2022-12-09T05:56:07.432Z,66.50
2022-12-09T05:58:35.655Z,66.40
2022-12-09T06:01:08.006Z,66.40
2022-12-09T06:03:38.575Z,66.40
2022-12-09T06:06:07.669Z,66.40
2022-12-09T06:08:37.048Z,66.30
2022-12-09T06:11:06.503Z,66.50
2022-12-09T06:13:34.669Z,66.60
2022-12-09T06:16:04.213Z,66.80
2022-12-09T06:18:32.359Z,66.80
2022-12-09T06:21:06.912Z,66.90
2022-12-09T06:23:36.005Z,67.00
2022-12-09T06:26:04.226Z,67.00
2022-12-09T06:28:32.652Z,67.00
2022-12-09T06:31:01.555Z,67.10
2022-12-09T06:33:53.690Z,67.20
2022-12-09T06:36:18.558Z,67.20
2022-12-09T06:38:46.670Z,67.20
2022-12-09T06:41:15.719Z,67.20
2022-12-09T06:43:43.937Z,67.20
2022-12-09T06:46:13.211Z,67.10
2022-12-09T06:48:41.772Z,67.60
2022-12-09T06:51:09.866Z,67.00
2022-12-09T06:53:39.715Z,67.00
2022-12-09T06:56:12.251Z,66.90
2022-12-09T06:58:41.195Z,66.90
2022-12-09T07:01:13.819Z,66.80
2022-12-09T07:03:42.942Z,66.70
2022-12-09T07:06:22.015Z,66.70
2022-12-09T07:08:51.743Z,66.60
2022-12-09T07:11:20.117Z,66.60
2022-12-09T07:13:48.538Z,66.60
2022-12-09T07:16:16.426Z,66.50
2022-12-09T07:18:44.716Z,66.40
2022-12-09T07:21:14.529Z,66.40
2022-12-09T07:23:42.900Z,66.40
2022-12-09T07:26:12.526Z,66.30
2022-12-09T07:28:42.467Z,66.30
2022-12-09T07:31:19.573Z,66.30
2022-12-09T07:33:48.542Z,66.30
2022-12-09T07:36:21.003Z,66.20
2022-12-09T07:38:50.337Z,66.20
2022-12-09T07:41:19.851Z,66.20
2022-12-09T07:43:48.958Z,66.20
2022-12-09T07:46:19.177Z,66.20
2022-12-09T07:48:48.276Z,66.10
2022-12-09T07:51:17.028Z,66.10
2022-12-09T07:53:45.327Z,66.20
2022-12-09T07:56:15.612Z,66.10
2022-12-09T07:58:47.662Z,66.10
2022-12-09T08:01:17.452Z,66.10
2022-12-09T08:03:46.460Z,66.10
2022-12-09T08:06:16.419Z,66.00
2022-12-09T08:08:46.381Z,66.00
2022-12-09T08:11:17.053Z,65.90
2022-12-09T08:13:46.318Z,65.90
2022-12-09T08:16:16.947Z,65.90
2022-12-09T08:18:46.278Z,66.00
2022-12-09T08:21:16.726Z,66.00
2022-12-09T08:23:45.680Z,66.00
2022-12-09T08:26:14.733Z,66.00
2022-12-09T08:28:43.612Z,66.20
2022-12-09T08:31:16.777Z,66.70
2022-12-09T08:33:45.252Z,67.20
2022-12-09T08:36:15.808Z,67.50
2022-12-09T08:38:44.237Z,67.80
2022-12-09T08:41:14.352Z,67.90
2022-12-09T08:43:42.924Z,68.20
2022-12-09T08:46:13.662Z,68.30
2022-12-09T08:48:42.954Z,68.50
2022-12-09T08:51:13.211Z,68.50
2022-12-09T08:53:41.565Z,68.60
2022-12-09T08:56:12.226Z,68.70
2022-12-09T08:58:41.404Z,68.70
2022-12-09T09:01:16.499Z,68.70
2022-12-09T09:03:44.918Z,68.80
2022-12-09T09:06:14.297Z,68.80
2022-12-09T09:08:42.634Z,69.50
2022-12-09T09:11:11.549Z,68.70
2022-12-09T09:13:40.158Z,68.70
2022-12-09T09:16:11.392Z,68.70
2022-12-09T09:18:41.974Z,68.70
2022-12-09T09:21:12.606Z,68.70
2022-12-09T09:23:41.369Z,68.60
2022-12-09T09:26:11.110Z,68.60
2022-12-09T09:28:39.377Z,68.50
2022-12-09T09:31:09.377Z,68.50
2022-12-09T09:33:37.443Z,68.40
2022-12-09T09:36:10.949Z,68.30
2022-12-09T09:38:40.159Z,68.30
2022-12-09T09:41:17.489Z,68.30
2022-12-09T09:43:45.869Z,68.20
2022-12-09T09:46:21.681Z,68.20
2022-12-09T09:48:51.964Z,68.10
2022-12-09T09:51:22.049Z,68.00
2022-12-09T09:53:53.275Z,67.90
2022-12-09T09:56:28.515Z,67.90
2022-12-09T09:59:06.564Z,67.70
2022-12-09T10:01:37.720Z,67.70
2022-12-09T10:04:15.396Z,67.60
2022-12-09T10:06:51.339Z,67.70
2022-12-09T10:09:23.900Z,67.80
2022-12-09T10:11:59.503Z,67.90
2022-12-09T10:14:45.691Z,68.00
2022-12-09T10:17:26.272Z,68.10
2022-12-09T10:19:58.399Z,68.10
2022-12-09T10:22:31.427Z,68.10
2022-12-09T10:25:04.421Z,68.20
2022-12-09T10:27:39.805Z,68.30
2022-12-09T10:30:11.826Z,68.50
2022-12-09T10:32:41.305Z,68.70
2022-12-09T10:35:15.638Z,69.00
2022-12-09T10:37:45.341Z,69.20
2022-12-09T10:40:26.400Z,69.10
2022-12-09T10:43:15.312Z,69.20
2022-12-09T10:46:17.220Z,69.00
2022-12-09T10:48:42.262Z,69.00
2022-12-09T10:51:15.678Z,69.00
2022-12-09T10:53:53.235Z,69.00
2022-12-09T10:56:25.116Z,69.10
2022-12-09T10:59:10.605Z,69.10
2022-12-09T11:01:50.503Z,69.20
2022-12-09T11:04:24.249Z,69.20
2022-12-09T11:06:59.343Z,69.10
2022-12-09T11:09:31.952Z,69.20
2022-12-09T11:12:01.436Z,69.20
2022-12-09T11:14:34.889Z,69.30
2022-12-09T11:17:15.005Z,69.40
2022-12-09T11:19:45.437Z,69.10
2022-12-09T11:22:28.263Z,69.10
2022-12-09T11:25:16.673Z,69.00
2022-12-09T11:27:52.445Z,68.90
2022-12-09T11:30:24.101Z,68.80
2022-12-09T11:33:02.588Z,68.80
2022-12-09T11:35:34.936Z,68.70
2022-12-09T11:38:14.794Z,68.30
2022-12-09T11:40:44.430Z,68.10
2022-12-09T11:43:12.641Z,67.90
2022-12-09T11:45:41.557Z,67.80
2022-12-09T11:48:30.260Z,67.70
2022-12-09T11:51:02.201Z,67.30
2022-12-09T11:53:31.645Z,67.10
2022-12-09T11:56:07.050Z,67.00
2022-12-09T11:58:40.590Z,66.80
2022-12-09T12:01:13.782Z,66.70
2022-12-09T12:03:47.661Z,66.50
2022-12-09T12:06:21.151Z,66.50
2022-12-09T12:08:52.070Z,66.40
2022-12-09T12:11:27.618Z,66.30
2022-12-09T12:14:02.526Z,66.20
2022-12-09T12:16:39.497Z,66.10
2022-12-09T12:19:16.273Z,66.10
2022-12-09T12:21:59.657Z,66.00
2022-12-09T12:24:39.855Z,66.00
2022-12-09T12:27:20.684Z,66.10
2022-12-09T12:29:54.374Z,66.00
2022-12-09T12:32:34.624Z,66.00
2022-12-09T12:35:22.959Z,66.60
2022-12-09T12:38:03.302Z,65.50
2022-12-09T12:40:40.575Z,65.50
2022-12-09T12:43:55.234Z,65.50
2022-12-09T12:46:35.533Z,65.40
2022-12-09T12:49:18.674Z,65.40
2022-12-09T12:51:55.905Z,65.40
2022-12-09T12:54:35.874Z,65.40
2022-12-09T12:57:24.891Z,65.40
2022-12-09T13:00:00.261Z,65.40
2022-12-09T13:02:38.507Z,65.40
2022-12-09T13:05:15.778Z,65.10
2022-12-09T13:07:49.870Z,64.90
2022-12-09T13:10:23.377Z,64.50
2022-12-09T13:12:56.714Z,64.20
2022-12-09T13:15:32.639Z,63.80
2022-12-09T13:18:12.151Z,63.50
2022-12-09T13:20:47.815Z,63.00
2022-12-09T13:23:33.546Z,62.50
2022-12-09T13:26:13.762Z,62.10
2022-12-09T13:28:48.589Z,61.80
2022-12-09T13:31:20.156Z,61.50
2022-12-09T13:33:58.256Z,61.20
2022-12-09T13:36:36.741Z,60.90
2022-12-09T13:39:05.265Z,60.60
2022-12-09T13:41:58.914Z,60.50
2022-12-09T13:44:34.070Z,60.10
2022-12-09T13:47:35.430Z,59.90
2022-12-09T13:50:06.493Z,59.70
2022-12-09T13:52:48.027Z,59.70
2022-12-09T13:55:32.083Z,59.70
2022-12-09T13:58:16.495Z,59.70
2022-12-09T14:01:02.801Z,59.80
2022-12-09T14:03:35.497Z,59.80
2022-12-09T14:06:16.761Z,60.00
2022-12-09T14:08:51.474Z,59.90
2022-12-09T14:11:42.673Z,60.20
2022-12-09T14:14:48.474Z,60.20
2022-12-09T14:17:48.795Z,60.40
2022-12-09T14:20:21.399Z,60.50
2022-12-09T14:23:14.585Z,60.70
2022-12-09T14:26:02.762Z,60.80
2022-12-09T14:28:59.534Z,61.10
2022-12-09T14:32:01.934Z,61.10
2022-12-09T14:34:36.779Z,61.30
2022-12-09T14:37:47.520Z,61.30
2022-12-09T14:40:38.756Z,61.50
2022-12-09T14:43:26.494Z,61.60
2022-12-09T14:45:57.781Z,61.70
2022-12-09T14:48:28.357Z,61.80
2022-12-09T14:51:17.230Z,61.90
2022-12-09T14:53:49.547Z,61.90
2022-12-09T14:56:20.810Z,61.90
2022-12-09T14:58:50.233Z,62.00
2022-12-09T15:01:19.065Z,62.00
2022-12-09T15:03:53.675Z,61.90
2022-12-09T15:06:26.473Z,61.90
2022-12-09T15:08:59.334Z,61.90
2022-12-09T15:11:32.141Z,62.10
2022-12-09T15:14:24.300Z,62.30
2022-12-09T15:16:52.629Z,62.60
2022-12-09T15:19:58.111Z,62.90
2022-12-09T15:22:21.780Z,63.20
2022-12-09T15:24:51.139Z,63.40
2022-12-09T15:27:22.347Z,63.70
2022-12-09T15:29:50.801Z,64.00
2022-12-09T15:32:25.098Z,64.10
2022-12-09T15:34:54.263Z,64.40
2022-12-09T15:37:27.243Z,64.60
2022-12-09T15:40:00.843Z,64.80
2022-12-09T15:42:33.390Z,65.10
2022-12-09T15:45:07.587Z,65.20
2022-12-09T15:47:39.906Z,65.40
2022-12-09T15:50:21.832Z,65.60
2022-12-09T15:52:52.983Z,65.80
2022-12-09T15:55:26.427Z,66.10
2022-12-09T15:57:59.023Z,66.30
2022-12-09T16:00:27.179Z,66.50
2022-12-09T16:02:55.259Z,66.60
2022-12-09T16:05:25.748Z,66.70
2022-12-09T16:07:56.745Z,66.90
2022-12-09T16:10:26.781Z,67.00
2022-12-09T16:13:10.840Z,67.10
2022-12-09T16:15:46.901Z,67.30
2022-12-09T16:18:19.054Z,67.30
2022-12-09T16:20:59.464Z,67.40
2022-12-09T16:23:28.088Z,67.50
2022-12-09T16:26:05.049Z,67.50
2022-12-09T16:28:36.485Z,67.60
2022-12-09T16:31:17.458Z,67.60
2022-12-09T16:33:48.913Z,67.70
2022-12-09T16:36:19.876Z,67.70
2022-12-09T16:39:14.381Z,67.80
2022-12-09T16:41:58.590Z,67.80
2022-12-09T16:44:32.663Z,67.90
2022-12-09T16:47:11.665Z,68.00
2022-12-09T16:49:40.808Z,68.10
2022-12-09T16:52:12.242Z,67.90
2022-12-09T16:54:40.596Z,68.10
2022-12-09T16:57:11.925Z,68.10
2022-12-09T16:59:41.332Z,68.10
2022-12-09T17:02:21.997Z,68.00
2022-12-09T17:04:51.002Z,68.10
2022-12-09T17:07:18.966Z,68.00
2022-12-09T17:09:46.714Z,68.00
2022-12-09T17:12:14.601Z,68.10
2022-12-09T17:14:43.925Z,67.80
2022-12-09T17:17:11.741Z,67.90
2022-12-09T17:19:41.653Z,67.80
2022-12-09T17:22:09.477Z,67.90
2022-12-09T17:24:37.867Z,67.80
2022-12-09T17:27:05.639Z,67.90
2022-12-09T17:29:33.426Z,67.80
2022-12-09T17:32:02.591Z,67.80
2022-12-09T17:34:30.450Z,67.80
2022-12-09T17:36:58.288Z,67.80
2022-12-09T17:39:26.010Z,67.80
2022-12-09T17:41:53.806Z,67.70
2022-12-09T17:44:21.931Z,67.70
2022-12-09T17:46:50.403Z,67.70
2022-12-09T17:49:20.453Z,67.70
2022-12-09T17:51:48.509Z,67.70
2022-12-09T17:54:16.267Z,68.40
2022-12-09T17:56:46.480Z,67.60
2022-12-09T17:59:15.836Z,67.60
2022-12-09T18:01:46.103Z,67.60
2022-12-09T18:04:14.911Z,67.60
2022-12-09T18:06:46.979Z,67.50
2022-12-09T18:09:16.603Z,68.30
2022-12-09T18:11:44.781Z,67.50
2022-12-09T18:14:12.944Z,67.50
2022-12-09T18:16:40.744Z,67.50
2022-12-09T18:19:12.736Z,67.50
2022-12-09T18:21:40.623Z,67.40
2022-12-09T18:24:10.277Z,67.40
2022-12-09T18:26:41.932Z,67.40
2022-12-09T18:29:11.011Z,67.40
2022-12-09T18:31:38.924Z,67.40
2022-12-09T18:34:06.932Z,67.40
2022-12-09T18:36:34.710Z,67.40
2022-12-09T18:39:02.428Z,67.40
2022-12-09T18:41:32.494Z,67.50
2022-12-09T18:44:05.292Z,67.60
2022-12-09T18:46:36.439Z,67.60
2022-12-09T18:49:07.067Z,67.60
2022-12-09T18:51:35.735Z,67.50
2022-12-09T18:54:04.831Z,67.50
2022-12-09T18:56:34.314Z,67.50
2022-12-09T18:59:07.564Z,67.50
2022-12-09T19:01:39.182Z,67.50
2022-12-09T19:04:11.219Z,67.50
2022-12-09T19:06:40.608Z,67.50
2022-12-09T19:09:10.204Z,67.50
2022-12-09T19:11:41.011Z,67.50
2022-12-09T19:14:09.603Z,67.40
2022-12-09T19:16:38.349Z,67.40
2022-12-09T19:19:09.936Z,67.40
2022-12-09T19:21:38.411Z,67.40
2022-12-09T19:24:07.114Z,67.40
2022-12-09T19:26:36.732Z,67.40
2022-12-09T19:29:09.491Z,67.40
2022-12-09T19:31:41.418Z,67.40
2022-12-09T19:34:13.359Z,67.40
2022-12-09T19:36:41.428Z,67.40
2022-12-09T19:39:10.333Z,67.30
2022-12-09T19:41:40.258Z,67.30
2022-12-09T19:44:11.097Z,67.30
2022-12-09T19:46:39.278Z,67.30
2022-12-09T19:49:07.176Z,67.30
2022-12-09T19:51:35.085Z,67.20
2022-12-09T19:54:03.217Z,67.20
2022-12-09T19:56:31.358Z,67.20
2022-12-09T19:59:00.405Z,67.20
2022-12-09T20:01:31.370Z,67.10
2022-12-09T20:04:13.916Z,67.10
2022-12-09T20:06:51.341Z,67.00
2022-12-09T20:09:24.225Z,67.00
2022-12-09T20:11:52.783Z,67.00
2022-12-09T20:14:20.917Z,67.00
2022-12-09T20:16:50.080Z,67.00
2022-12-09T20:19:19.576Z,67.00
2022-12-09T20:21:47.368Z,66.90
2022-12-09T20:24:15.136Z,66.90
2022-12-09T20:26:43.777Z,66.90
2022-12-09T20:29:12.504Z,66.90
2022-12-09T20:31:41.290Z,66.80
2022-12-09T20:34:13.802Z,66.80
2022-12-09T20:36:43.909Z,66.80
2022-12-09T20:39:14.849Z,66.70
2022-12-09T20:41:43.622Z,66.70
2022-12-09T20:44:12.845Z,66.70
2022-12-09T20:46:45.142Z,66.50
2022-12-09T20:49:14.182Z,66.50
2022-12-09T20:51:43.940Z,66.50
2022-12-09T20:54:12.357Z,66.60
2022-12-09T20:56:40.640Z,66.40
2022-12-09T20:59:09.935Z,66.40
2022-12-09T21:01:38.414Z,66.40
2022-12-09T21:04:08.024Z,66.40
2022-12-09T21:06:39.434Z,66.30
2022-12-09T21:09:09.689Z,66.40
2022-12-09T21:11:38.208Z,66.40
2022-12-09T21:14:07.652Z,66.40
2022-12-09T21:16:39.619Z,66.40
2022-12-09T21:19:10.218Z,66.40
2022-12-09T21:21:41.564Z,66.40
2022-12-09T21:24:11.843Z,66.50
2022-12-09T21:26:39.891Z,66.50
2022-12-09T21:29:08.620Z,66.60
2022-12-09T21:31:38.326Z,66.60
2022-12-09T21:34:07.145Z,66.60
2022-12-09T21:36:37.276Z,66.60
2022-12-09T21:39:08.907Z,66.70
2022-12-09T21:41:37.672Z,66.70
2022-12-09T21:44:07.053Z,66.70
2022-12-09T21:46:36.705Z,66.80
2022-12-09T21:49:06.197Z,66.80
2022-12-09T21:51:34.920Z,66.90
2022-12-09T21:54:03.678Z,66.90
2022-12-09T21:56:35.495Z,67.00
2022-12-09T21:59:04.545Z,67.00
2022-12-09T22:01:34.306Z,67.10
2022-12-09T22:04:03.502Z,67.10
2022-12-09T22:06:31.398Z,67.10
2022-12-09T22:08:59.528Z,67.10
2022-12-09T22:11:29.230Z,67.10
2022-12-09T22:14:00.139Z,67.10
2022-12-09T22:16:32.246Z,67.10
2022-12-09T22:19:01.384Z,67.10
2022-12-09T22:21:31.491Z,67.10
2022-12-09T22:24:02.612Z,67.10
2022-12-09T22:26:30.778Z,67.10
2022-12-09T22:29:02.225Z,67.00
2022-12-09T22:31:32.165Z,67.00
2022-12-09T22:34:02.085Z,67.00
2022-12-09T22:36:29.862Z,67.00
2022-12-09T22:38:57.914Z,67.10
2022-12-09T22:41:27.723Z,67.00
2022-12-09T22:43:57.090Z,67.10
2022-12-09T22:46:29.273Z,67.10
2022-12-09T22:48:58.888Z,67.10
2022-12-09T22:51:28.556Z,67.10
2022-12-09T22:53:58.287Z,67.10
2022-12-09T22:56:26.899Z,67.10
2022-12-09T22:58:55.350Z,67.10
2022-12-09T23:01:27.030Z,67.10
2022-12-09T23:03:55.756Z,67.10
2022-12-09T23:06:24.232Z,67.10
2022-12-09T23:08:52.443Z,67.10
2022-12-09T23:11:22.496Z,67.10
2022-12-09T23:13:50.803Z,67.20
2022-12-09T23:16:21.001Z,67.20
2022-12-09T23:18:50.337Z,67.20
2022-12-09T23:21:20.587Z,67.20
2022-12-09T23:23:48.720Z,67.20
2022-12-09T23:26:19.868Z,67.20
2022-12-09T23:28:49.956Z,67.20
2022-12-09T23:31:19.932Z,67.20
2022-12-09T23:33:51.269Z,67.20
2022-12-09T23:36:20.812Z,67.20
2022-12-09T23:38:49.088Z,67.30
2022-12-09T23:41:19.198Z,67.20
2022-12-09T23:43:48.660Z,67.20
2022-12-09T23:46:22.179Z,67.20
2022-12-09T23:48:52.343Z,67.20
2022-12-09T23:51:22.452Z,67.20
2022-12-09T23:53:52.028Z,67.20
2022-12-09T23:56:21.539Z,67.30
2022-12-09T23:58:53.409Z,67.20
